createdAt,value
2023-02-19T00:01:41.896Z,63.28
2023-02-19T00:04:10.895Z,52.88
2023-02-19T00:06:38.217Z,58.03
2023-02-19T00:09:06.043Z,67.90
2023-02-19T00:11:35.298Z,72.25
2023-02-19T00:14:03.597Z,60.60
2023-02-19T00:16:32.190Z,58.90
2023-02-19T00:19:00.417Z,58.33
2023-02-19T00:21:28.244Z,60.28
2023-02-19T00:23:56.934Z,57.47
2023-02-19T00:26:24.530Z,62.22
2023-02-19T00:31:22.064Z,52.95
2023-02-19T00:33:50.108Z,65.63
2023-02-19T00:36:17.837Z,60.55
2023-02-19T00:38:45.569Z,55.58
2023-02-19T00:41:22.625Z,53.72
2023-02-19T00:43:50.972Z,62.13
2023-02-19T00:46:19.010Z,56.72
2023-02-19T00:48:48.440Z,61.75
2023-02-19T00:51:16.247Z,58.03
2023-02-19T00:53:47.639Z,48.78
2023-02-19T00:56:18.384Z,55.53
2023-02-19T00:58:45.755Z,53.22
2023-02-19T01:01:16.298Z,47.47
2023-02-19T01:03:47.482Z,40.40
2023-02-19T01:06:18.415Z,49.22
2023-02-19T01:08:49.560Z,44.75
2023-02-19T01:11:17.505Z,41.60
2023-02-19T01:13:45.295Z,41.58
2023-02-19T01:16:14.110Z,46.60
2023-02-19T01:18:42.843Z,46.70
2023-02-19T01:21:13.010Z,45.25
2023-02-19T01:23:49.627Z,51.90
2023-02-19T01:26:20.593Z,46.20
2023-02-19T01:28:48.594Z,51.20
2023-02-19T01:31:17.363Z,67.50
2023-02-19T01:33:47.717Z,64.35
2023-02-19T01:36:17.698Z,69.18
2023-02-19T01:38:46.740Z,65.20
2023-02-19T01:41:16.915Z,68.28
2023-02-19T01:44:01.038Z,86.03
2023-02-19T01:46:29.227Z,74.22
2023-02-19T01:48:58.969Z,82.32
2023-02-19T01:51:26.403Z,74.28
2023-02-19T01:53:59.355Z,73.03
2023-02-19T01:56:27.586Z,94.75
2023-02-19T01:58:59.045Z,96.00
2023-02-19T02:01:26.383Z,85.97
2023-02-19T02:03:54.838Z,83.32
2023-02-19T02:06:23.702Z,87.32
2023-02-19T02:09:09.876Z,72.60
2023-02-19T02:11:41.821Z,86.28
2023-02-19T02:14:09.190Z,82.88
2023-02-19T02:16:42.148Z,72.57
2023-02-19T02:19:20.490Z,76.38
2023-02-19T02:21:54.972Z,102.72
2023-02-19T02:24:37.978Z,52.75
2023-02-19T02:27:14.170Z,60.72
2023-02-19T02:30:02.285Z,68.75
2023-02-19T02:32:34.116Z,63.67
2023-02-19T02:39:46.259Z,77.82
2023-02-19T02:42:29.335Z,62.85
2023-02-19T02:45:39.952Z,62.55
2023-02-19T02:48:38.452Z,56.65
2023-02-19T02:54:25.567Z,56.28
2023-02-19T02:56:55.216Z,62.40
2023-02-19T02:59:31.499Z,74.35
2023-02-19T03:02:11.897Z,61.58
2023-02-19T03:05:03.087Z,59.38
2023-02-19T03:07:34.960Z,53.20
2023-02-19T03:10:03.897Z,64.72
2023-02-19T03:12:50.002Z,64.80
2023-02-19T03:15:35.656Z,71.30
2023-02-19T03:18:26.584Z,57.30
2023-02-19T03:20:56.009Z,58.13
2023-02-19T03:23:50.298Z,65.05
2023-02-19T03:26:18.166Z,61.67
2023-02-19T03:29:14.438Z,51.88
2023-02-19T03:31:44.489Z,72.60
2023-02-19T03:34:18.279Z,68.60
2023-02-19T03:36:48.284Z,66.03
2023-02-19T03:39:23.674Z,74.38
2023-02-19T03:41:54.951Z,69.63
2023-02-19T03:44:28.717Z,84.55
2023-02-19T03:47:03.598Z,80.80
2023-02-19T03:49:42.545Z,66.97
2023-02-19T03:52:16.426Z,51.05
2023-02-19T03:54:47.992Z,59.03
2023-02-19T03:57:18.600Z,55.33
2023-02-19T03:59:49.842Z,60.35
2023-02-19T04:02:20.242Z,46.70
2023-02-19T04:04:50.678Z,61.83
2023-02-19T04:07:18.592Z,51.95
2023-02-19T04:09:53.100Z,50.72
2023-02-19T04:12:22.077Z,47.92
2023-02-19T04:14:53.271Z,42.60
2023-02-19T04:17:21.942Z,45.47
2023-02-19T04:19:51.042Z,54.45
2023-02-19T04:22:18.555Z,45.42
2023-02-19T04:24:48.929Z,40.08
2023-02-19T04:27:16.537Z,51.83
2023-02-19T04:29:43.987Z,57.47
2023-02-19T04:32:11.707Z,61.47
2023-02-19T04:34:39.162Z,39.05
2023-02-19T04:37:06.835Z,47.35
2023-02-19T04:39:34.233Z,41.63
2023-02-19T04:42:03.013Z,41.35
2023-02-19T04:44:30.419Z,37.67
2023-02-19T04:46:57.781Z,40.15
2023-02-19T04:49:25.232Z,32.00
2023-02-19T04:51:52.602Z,38.00
2023-02-19T04:54:26.100Z,39.63
2023-02-19T04:56:55.846Z,49.08
2023-02-19T04:59:27.564Z,40.88
2023-02-19T05:02:02.942Z,43.20
2023-02-19T05:04:33.777Z,42.50
2023-02-19T05:07:01.748Z,43.10
2023-02-19T05:11:56.557Z,42.63
2023-02-19T05:14:25.430Z,45.63
2023-02-19T05:16:52.956Z,43.58
2023-02-19T05:19:20.633Z,42.45
2023-02-19T05:21:48.067Z,46.00
2023-02-19T05:24:19.685Z,42.78
2023-02-19T05:26:49.928Z,45.00
2023-02-19T05:29:17.320Z,39.47
2023-02-19T05:31:49.614Z,51.30
2023-02-19T05:34:17.243Z,43.10
2023-02-19T05:36:45.194Z,42.22
2023-02-19T05:41:44.570Z,39.17
2023-02-19T05:44:13.521Z,40.75
2023-02-19T05:46:41.027Z,47.03
2023-02-19T05:49:11.046Z,42.03
2023-02-19T05:51:38.560Z,44.95
2023-02-19T05:54:06.484Z,40.42
2023-02-19T05:56:38.373Z,38.55
2023-02-19T05:59:10.523Z,32.03
2023-02-19T06:01:48.942Z,33.22
2023-02-19T06:04:22.234Z,34.33
2023-02-19T06:06:54.984Z,33.45
2023-02-19T06:09:24.697Z,35.25
2023-02-19T06:11:52.268Z,51.92
2023-02-19T06:14:21.198Z,45.17
2023-02-19T06:16:55.736Z,41.72
2023-02-19T06:19:24.815Z,39.00
2023-02-19T06:21:53.602Z,36.92
2023-02-19T06:24:21.316Z,32.92
2023-02-19T06:26:49.240Z,32.22
2023-02-19T06:31:44.687Z,31.73
2023-02-19T06:34:12.341Z,41.33
2023-02-19T06:36:41.184Z,36.25
2023-02-19T06:39:08.709Z,49.83
2023-02-19T06:41:38.351Z,53.03
2023-02-19T06:44:08.010Z,46.05
2023-02-19T06:46:35.498Z,48.95
2023-02-19T06:49:04.774Z,50.20
2023-02-19T06:51:34.564Z,40.53
2023-02-19T06:54:05.304Z,41.17
2023-02-19T06:56:46.984Z,48.90
2023-02-19T06:59:17.746Z,43.35
2023-02-19T07:01:47.527Z,48.10
2023-02-19T07:04:18.810Z,38.88
2023-02-19T07:06:48.011Z,45.58
2023-02-19T07:09:16.863Z,37.42
2023-02-19T07:11:44.614Z,37.15
2023-02-19T07:14:19.844Z,40.10
2023-02-19T07:16:47.675Z,29.98
2023-02-19T07:19:17.210Z,35.17
2023-02-19T07:21:44.652Z,35.50
2023-02-19T07:24:14.089Z,29.90
2023-02-19T07:26:48.458Z,28.42
2023-02-19T07:29:25.191Z,32.00
2023-02-19T07:31:54.812Z,33.08
2023-02-19T07:34:22.613Z,31.73
2023-02-19T07:36:51.298Z,30.95
2023-02-19T07:39:21.834Z,34.67
2023-02-19T07:41:50.644Z,33.55
2023-02-19T07:44:26.953Z,40.17
2023-02-19T07:46:54.699Z,31.27
2023-02-19T07:49:24.937Z,29.55
2023-02-19T07:51:55.592Z,33.20
2023-02-19T07:54:24.318Z,34.30
2023-02-19T07:56:55.807Z,42.95
2023-02-19T07:59:26.010Z,29.75
2023-02-19T08:02:22.972Z,34.92
2023-02-19T08:04:53.411Z,34.50
2023-02-19T08:07:20.999Z,32.92
2023-02-19T08:10:14.817Z,40.95
2023-02-19T08:13:03.232Z,33.05
2023-02-19T08:15:33.761Z,29.08
2023-02-19T08:18:01.138Z,31.13
2023-02-19T08:20:28.530Z,38.97
2023-02-19T08:22:55.932Z,30.77
2023-02-19T08:25:25.759Z,31.73
2023-02-19T08:27:54.657Z,36.05
2023-02-19T08:30:26.430Z,39.50
2023-02-19T08:32:55.543Z,28.45
2023-02-19T08:35:29.147Z,32.25
2023-02-19T08:38:02.327Z,34.00
2023-02-19T08:40:31.079Z,25.00
2023-02-19T08:43:04.680Z,31.90
2023-02-19T08:45:32.278Z,30.85
2023-02-19T08:48:01.022Z,26.70
2023-02-19T08:50:31.165Z,22.45
2023-02-19T08:53:01.235Z,28.92
2023-02-19T08:55:28.930Z,24.38
2023-02-19T08:57:56.684Z,26.73
2023-02-19T09:00:27.709Z,28.70
2023-02-19T09:02:55.585Z,27.45
2023-02-19T09:05:25.878Z,24.67
2023-02-19T09:07:53.803Z,28.95
2023-02-19T09:12:56.424Z,31.13
2023-02-19T09:15:28.518Z,29.20
2023-02-19T09:17:56.548Z,30.90
2023-02-19T09:22:51.368Z,28.67
2023-02-19T09:25:27.684Z,24.15
2023-02-19T09:27:58.339Z,37.63
2023-02-19T09:30:29.184Z,29.92
2023-02-19T09:32:56.726Z,31.17
2023-02-19T09:35:26.754Z,39.22
2023-02-19T09:37:54.420Z,38.03
2023-02-19T09:40:22.587Z,35.30
2023-02-19T09:42:51.546Z,31.88
2023-02-19T09:45:23.653Z,36.08
2023-02-19T09:47:55.962Z,32.58
2023-02-19T09:50:26.162Z,37.92
2023-02-19T09:52:55.473Z,29.00
2023-02-19T09:55:30.152Z,24.60
2023-02-19T09:58:04.640Z,39.75
2023-02-19T10:00:33.948Z,27.50
2023-02-19T10:03:09.324Z,25.77
2023-02-19T10:05:37.219Z,19.90
2023-02-19T10:08:07.713Z,20.75
2023-02-19T10:10:35.958Z,22.48
2023-02-19T10:13:19.054Z,32.90
2023-02-19T10:15:52.885Z,22.73
2023-02-19T10:18:25.542Z,25.60
2023-02-19T10:20:56.731Z,28.13
2023-02-19T10:23:26.167Z,28.90
2023-02-19T10:25:58.184Z,24.73
2023-02-19T10:28:32.254Z,26.77
2023-02-19T10:31:01.103Z,31.23
2023-02-19T10:33:34.529Z,23.45
2023-02-19T10:36:06.562Z,26.92
2023-02-19T10:38:36.437Z,20.58
2023-02-19T10:41:08.009Z,23.08
2023-02-19T10:43:39.472Z,18.30
2023-02-19T10:46:17.855Z,21.30
2023-02-19T10:48:48.137Z,28.58
2023-02-19T10:51:26.423Z,15.10
2023-02-19T10:54:05.288Z,20.25
2023-02-19T10:56:33.691Z,23.88
2023-02-19T10:59:16.200Z,14.75
2023-02-19T11:01:55.873Z,19.98
2023-02-19T11:04:29.058Z,18.67
2023-02-19T11:06:57.459Z,14.50
2023-02-19T11:09:30.438Z,18.88
2023-02-19T11:11:59.317Z,18.58
2023-02-19T11:14:30.191Z,22.75
2023-02-19T11:17:00.755Z,18.52
2023-02-19T11:19:36.366Z,19.98
2023-02-19T11:22:19.214Z,6.70
2023-02-19T11:24:54.534Z,8.77
2023-02-19T11:27:25.910Z,6.13
2023-02-19T11:29:53.382Z,5.93
2023-02-19T11:32:30.475Z,9.27
2023-02-19T11:35:22.940Z,4.70
2023-02-19T11:37:57.829Z,5.32
2023-02-19T11:40:35.085Z,6.25
2023-02-19T11:43:06.868Z,5.70
2023-02-19T11:45:38.249Z,3.40
2023-02-19T11:48:20.807Z,6.00
2023-02-19T11:50:53.511Z,4.57
2023-02-19T11:53:25.937Z,4.70
2023-02-19T11:55:57.489Z,3.90
2023-02-19T11:58:38.246Z,4.00
2023-02-19T12:01:09.869Z,5.28
2023-02-19T12:03:55.522Z,5.50
2023-02-19T12:06:30.169Z,5.90
2023-02-19T12:09:07.585Z,5.32
2023-02-19T12:11:50.420Z,4.95
2023-02-19T12:14:38.646Z,4.22
2023-02-19T12:17:09.822Z,5.72
2023-02-19T12:19:54.745Z,6.88
2023-02-19T12:22:31.211Z,9.80
2023-02-19T12:25:16.607Z,10.70
2023-02-19T12:27:54.439Z,9.82
2023-02-19T12:33:18.321Z,5.68
2023-02-19T12:36:00.491Z,6.22
2023-02-19T12:38:38.180Z,6.82
2023-02-19T12:41:19.294Z,7.70
2023-02-19T12:43:53.902Z,5.75
2023-02-19T12:46:27.967Z,6.13
2023-02-19T12:49:00.045Z,7.80
2023-02-19T12:51:28.794Z,5.25
2023-02-19T12:53:59.748Z,6.05
2023-02-19T12:56:36.926Z,4.80
2023-02-19T12:59:08.570Z,6.28
2023-02-19T13:01:41.607Z,5.15
2023-02-19T13:04:15.654Z,8.25
2023-02-19T13:06:57.417Z,4.05
2023-02-19T13:09:34.437Z,5.97
2023-02-19T13:12:08.485Z,4.95
2023-02-19T13:14:38.735Z,5.32
2023-02-19T13:17:14.294Z,5.38
2023-02-19T13:19:42.197Z,4.63
2023-02-19T13:24:56.440Z,6.13
2023-02-19T13:27:35.916Z,7.22
2023-02-19T13:30:09.899Z,7.20
2023-02-19T13:32:49.150Z,5.15
2023-02-19T13:35:23.931Z,5.00
2023-02-19T13:37:52.012Z,9.02
2023-02-19T13:40:31.884Z,7.00
2023-02-19T13:43:00.477Z,8.20
2023-02-19T13:45:32.229Z,7.20
2023-02-19T13:48:01.025Z,6.55
2023-02-19T13:50:30.094Z,8.88
2023-02-19T13:52:57.722Z,14.45
2023-02-19T13:55:46.627Z,13.57
2023-02-19T13:58:33.110Z,9.60
2023-02-19T14:01:08.572Z,9.02
2023-02-19T14:03:56.857Z,7.03
2023-02-19T14:06:24.238Z,7.78
2023-02-19T14:08:56.957Z,5.72
2023-02-19T14:11:42.981Z,7.53
2023-02-19T14:14:26.455Z,8.30
2023-02-19T14:17:01.060Z,10.48
2023-02-19T14:19:58.845Z,8.80
2023-02-19T14:22:45.197Z,8.23
2023-02-19T14:25:23.672Z,15.63
2023-02-19T14:27:53.421Z,18.67
2023-02-19T14:30:22.204Z,10.32
2023-02-19T14:33:02.784Z,16.00
2023-02-19T14:35:38.968Z,11.68
2023-02-19T14:38:07.060Z,12.77
2023-02-19T14:40:37.928Z,13.55
2023-02-19T14:43:06.351Z,12.98
2023-02-19T14:45:38.328Z,12.30
2023-02-19T14:48:08.169Z,14.35
2023-02-19T14:50:36.076Z,13.65
2023-02-19T14:53:05.547Z,13.70
2023-02-19T14:55:39.883Z,17.33
2023-02-19T14:58:08.582Z,17.27
2023-02-19T15:00:37.158Z,16.30
2023-02-19T15:03:05.642Z,16.58
2023-02-19T15:05:36.497Z,22.65
2023-02-19T15:08:12.198Z,14.02
2023-02-19T15:10:40.084Z,16.45
2023-02-19T15:13:11.964Z,15.85
2023-02-19T15:15:41.152Z,17.15
2023-02-19T15:18:19.356Z,15.95
2023-02-19T15:20:48.615Z,13.38
2023-02-19T15:23:20.169Z,18.30
2023-02-19T15:25:49.237Z,12.25
2023-02-19T15:28:20.641Z,13.57
2023-02-19T15:30:50.537Z,15.35
2023-02-19T15:33:19.426Z,11.20
2023-02-19T15:35:51.026Z,14.60
2023-02-19T15:38:19.097Z,13.38
2023-02-19T15:40:47.331Z,16.02
2023-02-19T15:43:21.494Z,13.57
2023-02-19T15:45:49.036Z,18.60
2023-02-19T15:48:18.238Z,17.45
2023-02-19T15:50:57.134Z,16.88
2023-02-19T15:53:25.604Z,31.15
2023-02-19T15:55:59.185Z,24.65
2023-02-19T15:58:31.690Z,19.30
2023-02-19T16:01:01.348Z,14.95
2023-02-19T16:03:29.763Z,22.63
2023-02-19T16:06:03.711Z,18.50
2023-02-19T16:08:32.434Z,21.65
2023-02-19T16:11:05.585Z,23.83
2023-02-19T16:13:35.284Z,22.38
2023-02-19T16:16:07.276Z,20.45
2023-02-19T16:18:39.597Z,29.88
2023-02-19T16:21:09.642Z,25.70
2023-02-19T16:23:42.228Z,24.80
2023-02-19T16:26:09.867Z,24.65
2023-02-19T16:28:38.516Z,23.75
2023-02-19T16:31:07.478Z,29.25
2023-02-19T16:33:37.942Z,20.33
2023-02-19T16:36:32.482Z,17.70
2023-02-19T16:39:04.582Z,23.55
2023-02-19T16:41:38.617Z,23.83
2023-02-19T16:44:30.904Z,13.02
2023-02-19T16:46:59.584Z,14.15
2023-02-19T16:49:27.366Z,14.48
2023-02-19T16:51:55.093Z,17.75
2023-02-19T16:54:25.601Z,16.60
2023-02-19T16:56:53.245Z,14.20
2023-02-19T16:59:20.989Z,12.77
2023-02-19T17:01:48.606Z,17.50
2023-02-19T17:04:16.924Z,15.77
2023-02-19T17:06:45.547Z,13.57
2023-02-19T17:09:16.192Z,10.38
2023-02-19T17:11:45.073Z,12.48
2023-02-19T17:14:12.967Z,9.48
2023-02-19T17:19:13.962Z,9.98
2023-02-19T17:21:41.352Z,9.40
2023-02-19T17:24:09.063Z,9.68
2023-02-19T17:26:38.073Z,8.25
2023-02-19T17:29:08.528Z,11.52
2023-02-19T17:31:36.098Z,10.27
2023-02-19T17:34:03.748Z,8.80
2023-02-19T17:36:32.524Z,13.15
2023-02-19T17:39:02.790Z,10.38
2023-02-19T17:41:31.826Z,8.75
2023-02-19T17:44:01.447Z,16.50
2023-02-19T17:46:30.888Z,11.90
2023-02-19T17:48:58.476Z,17.38
2023-02-19T17:51:26.130Z,13.60
2023-02-19T17:53:53.922Z,12.60
2023-02-19T17:58:49.054Z,14.40
2023-02-19T18:01:16.876Z,19.15
2023-02-19T18:03:48.437Z,12.10
2023-02-19T18:06:16.064Z,14.05
2023-02-19T18:08:47.659Z,18.02
2023-02-19T18:11:18.326Z,21.63
2023-02-19T18:13:46.428Z,18.40
2023-02-19T18:16:15.726Z,15.60
2023-02-19T18:18:43.434Z,15.43
2023-02-19T18:21:14.070Z,17.73
2023-02-19T18:23:41.941Z,20.13
2023-02-19T18:26:11.472Z,20.33
2023-02-19T18:28:42.004Z,20.33
2023-02-19T18:31:09.830Z,22.83
2023-02-19T18:33:40.805Z,22.75
2023-02-19T18:36:12.846Z,24.98
2023-02-19T18:38:42.440Z,13.38
2023-02-19T18:41:12.050Z,10.50
2023-02-19T18:43:41.071Z,15.75
2023-02-19T18:46:09.027Z,19.02
2023-02-19T18:48:36.474Z,18.90
2023-02-19T18:51:04.002Z,18.77
2023-02-19T18:53:32.728Z,19.83
2023-02-19T18:56:01.864Z,17.27
2023-02-19T18:58:29.318Z,20.85
2023-02-19T19:00:57.481Z,18.58
2023-02-19T19:03:24.875Z,23.25
2023-02-19T19:05:52.244Z,20.75
2023-02-19T19:08:19.643Z,14.05
2023-02-19T19:10:48.622Z,22.40
2023-02-19T19:13:16.024Z,15.68
2023-02-19T19:15:45.018Z,12.32
2023-02-19T19:18:12.431Z,17.58
2023-02-19T19:20:39.822Z,18.77
2023-02-19T19:23:07.735Z,16.85
2023-02-19T19:25:36.263Z,12.30
2023-02-19T19:28:05.455Z,21.55
2023-02-19T19:30:35.551Z,15.50
2023-02-19T19:33:03.611Z,14.00
2023-02-19T19:35:32.408Z,19.77
2023-02-19T19:38:00.042Z,16.23
2023-02-19T19:40:31.942Z,17.10
2023-02-19T19:42:59.458Z,23.25
2023-02-19T19:45:28.357Z,17.13
2023-02-19T19:47:55.817Z,16.33
2023-02-19T19:50:23.209Z,19.08
2023-02-19T19:52:50.773Z,17.02
2023-02-19T19:55:18.378Z,17.83
2023-02-19T19:57:46.340Z,11.02
2023-02-19T20:02:42.514Z,15.30
2023-02-19T20:05:12.827Z,15.45
2023-02-19T20:07:40.470Z,16.60
2023-02-19T20:10:08.585Z,17.67
2023-02-19T20:12:36.139Z,17.85
2023-02-19T20:15:09.298Z,19.70
2023-02-19T20:17:36.729Z,19.20
2023-02-19T20:20:06.740Z,29.25
2023-02-19T20:22:36.379Z,23.20
2023-02-19T20:25:04.045Z,25.80
2023-02-19T20:27:31.396Z,21.73
2023-02-19T20:29:58.775Z,25.23
2023-02-19T20:32:30.655Z,23.30
2023-02-19T20:34:58.125Z,21.10
2023-02-19T20:37:26.907Z,22.52
2023-02-19T20:39:54.330Z,28.08
2023-02-19T20:42:21.938Z,19.02
2023-02-19T20:44:49.320Z,24.25
2023-02-19T20:47:16.961Z,22.45
2023-02-19T20:49:47.191Z,22.73
2023-02-19T20:52:16.277Z,22.25
2023-02-19T20:54:45.554Z,20.00
2023-02-19T20:57:13.757Z,22.20
2023-02-19T20:59:41.302Z,23.50
2023-02-19T21:02:11.710Z,19.55
2023-02-19T21:04:39.321Z,22.63
2023-02-19T21:07:06.904Z,22.45
2023-02-19T21:09:37.030Z,22.75
2023-02-19T21:12:06.687Z,23.15
2023-02-19T21:14:34.410Z,24.05
2023-02-19T21:17:01.909Z,19.35
2023-02-19T21:21:57.223Z,25.80
2023-02-19T21:24:24.874Z,27.50
2023-02-19T21:26:56.351Z,19.40
2023-02-19T21:29:25.900Z,22.25
2023-02-19T21:31:54.817Z,20.80
2023-02-19T21:34:26.542Z,26.60
2023-02-19T21:36:57.251Z,20.25
2023-02-19T21:39:25.938Z,20.55
2023-02-19T21:42:00.093Z,20.27
2023-02-19T21:44:33.710Z,20.23
2023-02-19T21:47:03.476Z,21.50
2023-02-19T21:49:34.138Z,19.08
2023-02-19T21:52:03.648Z,23.00
2023-02-19T21:54:31.214Z,18.50
2023-02-19T21:57:01.903Z,19.77
2023-02-19T21:59:31.918Z,26.88
2023-02-19T22:01:59.429Z,20.73
2023-02-19T22:04:27.431Z,20.73
2023-02-19T22:06:55.807Z,20.35
2023-02-19T22:09:25.910Z,19.35
2023-02-19T22:11:53.652Z,20.35
2023-02-19T22:14:21.198Z,25.63
2023-02-19T22:16:52.706Z,22.15
2023-02-19T22:19:20.256Z,22.45
2023-02-19T22:21:47.697Z,26.05
2023-02-19T22:24:16.318Z,23.98
2023-02-19T22:26:44.789Z,24.85
2023-02-19T22:29:13.363Z,28.13
2023-02-19T22:31:40.802Z,32.92
2023-02-19T22:34:10.019Z,32.80
2023-02-19T22:36:38.114Z,31.00
2023-02-19T22:39:06.428Z,33.83
2023-02-19T22:41:33.853Z,36.10
2023-02-19T22:44:01.646Z,35.25
2023-02-19T22:46:29.673Z,37.83
2023-02-19T22:48:58.658Z,36.28
2023-02-19T22:51:27.628Z,35.10
2023-02-19T22:53:55.964Z,33.17
2023-02-19T22:56:28.599Z,29.38
2023-02-19T22:58:56.732Z,22.65
2023-02-19T23:01:24.576Z,23.02
2023-02-19T23:06:26.779Z,18.45
2023-02-19T23:08:56.498Z,19.05
2023-02-19T23:11:24.932Z,15.93
2023-02-19T23:13:52.580Z,19.60
2023-02-19T23:16:20.254Z,18.58
2023-02-19T23:18:48.762Z,19.85
2023-02-19T23:21:16.404Z,18.90
2023-02-19T23:23:44.346Z,14.80
2023-02-19T23:28:41.454Z,16.38
2023-02-19T23:31:10.723Z,12.50
2023-02-19T23:33:38.466Z,15.43
2023-02-19T23:36:06.417Z,14.88
2023-02-19T23:41:03.679Z,17.98
2023-02-19T23:43:31.259Z,14.55
2023-02-19T23:46:01.770Z,25.80
2023-02-19T23:48:29.358Z,13.93
2023-02-19T23:50:56.780Z,11.23
2023-02-19T23:53:24.255Z,12.10
2023-02-19T23:55:54.930Z,12.43
2023-02-19T23:58:22.386Z,15.18
